createdAt,value
2023-05-06T00:00:40.476Z,14.21
2023-05-06T00:01:40.455Z,14.30
2023-05-06T00:02:40.480Z,14.34
2023-05-06T00:03:40.515Z,14.19
2023-05-06T00:04:40.451Z,14.22
2023-05-06T00:05:40.410Z,14.30
2023-05-06T00:06:40.386Z,14.41
2023-05-06T00:07:40.417Z,14.49
2023-05-06T00:08:40.387Z,14.46
2023-05-06T00:09:40.355Z,14.48
2023-05-06T00:10:40.345Z,14.56
2023-05-06T00:11:40.332Z,14.59
2023-05-06T00:12:40.355Z,14.64
2023-05-06T00:13:40.299Z,14.66
2023-05-06T00:14:40.302Z,14.49
2023-05-06T00:15:40.290Z,14.34
2023-05-06T00:16:40.385Z,14.28
2023-05-06T00:17:40.290Z,14.22
2023-05-06T00:19:56.379Z,14.21
2023-05-06T00:20:57.338Z,14.15
2023-05-06T00:21:57.333Z,14.04
2023-05-06T00:22:57.333Z,14.01
2023-05-06T00:23:57.301Z,13.91
2023-05-06T00:24:57.307Z,13.86
2023-05-06T00:25:57.282Z,13.93
2023-05-06T00:26:57.257Z,14.00
2023-05-06T00:27:57.311Z,14.03
2023-05-06T00:28:57.241Z,14.13
2023-05-06T00:29:57.228Z,14.22
2023-05-06T00:30:57.212Z,14.30
2023-05-06T00:31:57.636Z,14.33
2023-05-06T00:32:57.275Z,14.38
2023-05-06T00:33:57.187Z,14.22
2023-05-06T00:34:57.157Z,14.26
2023-05-06T00:35:57.164Z,14.22
2023-05-06T00:36:57.167Z,14.30
2023-05-06T00:37:57.131Z,14.36
2023-05-06T00:38:57.104Z,14.37
2023-05-06T00:39:57.110Z,14.31
2023-05-06T00:40:57.096Z,14.30
2023-05-06T00:41:57.076Z,14.30
2023-05-06T00:42:57.048Z,14.21
2023-05-06T00:43:57.038Z,14.33
2023-05-06T00:44:57.019Z,14.34
2023-05-06T00:45:57.132Z,14.36
2023-05-06T00:46:57.006Z,14.31
2023-05-06T00:47:57.021Z,14.34
2023-05-06T00:48:56.962Z,14.30
2023-05-06T00:49:56.979Z,14.27
2023-05-06T00:50:56.985Z,14.18
2023-05-06T00:51:56.927Z,14.15
2023-05-06T00:52:56.915Z,14.16
2023-05-06T00:53:56.911Z,14.09
2023-05-06T00:54:56.949Z,14.03
2023-05-06T00:55:56.880Z,14.04
2023-05-06T00:56:56.871Z,13.97
2023-05-06T00:57:56.852Z,13.98
2023-05-06T00:58:56.829Z,14.01
2023-05-06T00:59:56.837Z,13.91
2023-05-06T01:00:56.838Z,13.98
2023-05-06T01:01:56.805Z,14.03
2023-05-06T01:02:56.866Z,14.05
2023-05-06T01:03:56.963Z,14.03
2023-05-06T01:04:56.841Z,14.01
2023-05-06T01:05:56.820Z,13.98
2023-05-06T01:06:56.772Z,13.83
2023-05-06T01:07:56.726Z,13.86
2023-05-06T01:08:56.698Z,13.91
2023-05-06T01:09:56.736Z,13.86
2023-05-06T01:10:56.704Z,13.98
2023-05-06T01:11:56.690Z,14.00
2023-05-06T01:12:56.697Z,13.90
2023-05-06T01:13:56.651Z,14.00
2023-05-06T01:14:56.675Z,14.16
2023-05-06T01:15:56.641Z,14.27
2023-05-06T01:16:56.648Z,14.12
2023-05-06T01:17:56.687Z,14.05
2023-05-06T01:18:56.636Z,14.03
2023-05-06T01:19:56.587Z,14.01
2023-05-06T01:20:56.541Z,13.94
2023-05-06T01:21:56.530Z,13.88
2023-05-06T01:22:56.575Z,13.73
2023-05-06T01:23:56.560Z,13.72
2023-05-06T01:24:56.496Z,13.76
2023-05-06T01:25:56.507Z,13.83
2023-05-06T01:26:56.474Z,13.97
2023-05-06T01:27:56.481Z,14.08
2023-05-06T01:28:56.486Z,14.16
2023-05-06T01:29:56.468Z,14.15
2023-05-06T01:30:56.538Z,14.03
2023-05-06T01:31:56.410Z,13.97
2023-05-06T01:32:56.390Z,13.90
2023-05-06T01:33:56.416Z,13.93
2023-05-06T01:34:56.353Z,13.90
2023-05-06T01:35:56.364Z,13.85
2023-05-06T01:36:56.380Z,13.71
2023-05-06T01:37:56.333Z,13.83
2023-05-06T01:38:56.360Z,13.80
2023-05-06T01:39:56.304Z,13.80
2023-05-06T01:40:56.288Z,13.83
2023-05-06T01:41:56.293Z,13.83
2023-05-06T01:42:56.257Z,13.88
2023-05-06T01:43:56.269Z,13.93
2023-05-06T01:44:56.227Z,13.98
2023-05-06T01:45:56.235Z,14.05
2023-05-06T01:46:56.205Z,14.09
2023-05-06T01:47:56.248Z,14.09
2023-05-06T01:48:56.181Z,14.03
2023-05-06T01:49:56.181Z,13.97
2023-05-06T01:50:56.152Z,13.93
2023-05-06T01:51:56.156Z,13.86
2023-05-06T01:52:56.128Z,13.82
2023-05-06T01:53:56.110Z,13.72
2023-05-06T01:54:56.104Z,13.72
2023-05-06T01:55:56.138Z,13.64
2023-05-06T01:56:56.143Z,13.63
2023-05-06T01:57:56.056Z,13.60
2023-05-06T01:58:56.042Z,13.55
2023-05-06T01:59:56.046Z,13.58
2023-05-06T02:00:56.031Z,13.63
2023-05-06T02:01:56.077Z,13.71
2023-05-06T02:02:56.146Z,13.72
2023-05-06T02:03:56.226Z,13.73
2023-05-06T02:04:55.982Z,13.76
2023-05-06T02:05:55.956Z,13.75
2023-05-06T02:06:55.943Z,13.75
2023-05-06T02:07:55.943Z,13.73
2023-05-06T02:08:55.919Z,13.65
2023-05-06T02:09:55.927Z,13.64
2023-05-06T02:10:55.924Z,13.68
2023-05-06T02:11:55.875Z,13.73
2023-05-06T02:12:55.905Z,13.73
2023-05-06T02:13:55.856Z,13.75
2023-05-06T02:14:55.857Z,13.75
2023-05-06T02:15:55.914Z,13.76
2023-05-06T02:16:55.803Z,13.75
2023-05-06T02:17:55.854Z,13.73
2023-05-06T02:18:55.819Z,13.71
2023-05-06T02:19:55.773Z,13.67
2023-05-06T02:20:55.758Z,13.64
2023-05-06T02:21:55.760Z,13.58
2023-05-06T02:22:55.769Z,13.51
2023-05-06T02:23:55.731Z,13.49
2023-05-06T02:24:55.699Z,13.42
2023-05-06T02:25:55.692Z,13.38
2023-05-06T02:26:55.679Z,13.35
2023-05-06T02:27:55.671Z,13.29
2023-05-06T02:28:55.663Z,13.23
2023-05-06T02:29:55.664Z,13.16
2023-05-06T02:30:55.628Z,13.06
2023-05-06T02:31:55.633Z,13.06
2023-05-06T02:32:55.639Z,13.09
2023-05-06T02:33:55.615Z,13.04
2023-05-06T02:34:55.568Z,13.02
2023-05-06T02:35:55.573Z,13.02
2023-05-06T02:36:55.556Z,13.04
2023-05-06T02:37:55.558Z,13.01
2023-05-06T02:38:55.514Z,13.05
2023-05-06T02:39:55.506Z,13.05
2023-05-06T02:40:55.524Z,13.01
2023-05-06T02:41:55.503Z,13.04
2023-05-06T02:42:55.524Z,13.08
2023-05-06T02:43:55.458Z,13.11
2023-05-06T02:44:55.439Z,13.08
2023-05-06T02:45:55.517Z,13.08
2023-05-06T02:46:55.425Z,13.11
2023-05-06T02:47:55.433Z,13.06
2023-05-06T02:48:55.382Z,12.93
2023-05-06T02:49:55.387Z,12.93
2023-05-06T02:50:55.357Z,12.91
2023-05-06T02:51:55.568Z,12.87
2023-05-06T02:52:55.505Z,12.87
2023-05-06T02:53:55.329Z,12.66
2023-05-06T02:54:55.315Z,12.68
2023-05-06T02:55:55.408Z,12.71
2023-05-06T02:56:55.292Z,12.68
2023-05-06T02:57:55.276Z,12.72
2023-05-06T02:58:55.249Z,12.73
2023-05-06T02:59:55.256Z,12.66
2023-05-06T03:00:55.262Z,12.71
2023-05-06T03:01:55.219Z,12.77
2023-05-06T03:02:55.238Z,12.72
2023-05-06T03:03:55.246Z,12.73
2023-05-06T03:04:55.190Z,12.77
2023-05-06T03:05:55.184Z,12.79
2023-05-06T03:06:55.159Z,12.83
2023-05-06T03:07:55.130Z,12.81
2023-05-06T03:08:55.126Z,12.93
2023-05-06T03:09:55.136Z,12.91
2023-05-06T03:10:55.130Z,13.01
2023-05-06T03:11:55.103Z,13.06
2023-05-06T03:12:55.167Z,13.11
2023-05-06T03:13:55.070Z,13.16
2023-05-06T03:14:55.072Z,13.21
2023-05-06T03:15:55.031Z,13.27
2023-05-06T03:16:55.108Z,13.29
2023-05-06T03:17:55.024Z,13.38
2023-05-06T03:18:55.014Z,13.40
2023-05-06T03:19:54.992Z,13.47
2023-05-06T03:20:54.957Z,13.46
2023-05-06T03:21:54.960Z,13.47
2023-05-06T03:22:54.941Z,13.51
2023-05-06T03:23:54.941Z,13.49
2023-05-06T03:24:54.934Z,13.49
2023-05-06T03:25:54.932Z,13.51
2023-05-06T03:26:54.894Z,13.54
2023-05-06T03:27:54.816Z,13.55
2023-05-06T03:28:54.833Z,13.58
2023-05-06T03:29:54.819Z,13.61
2023-05-06T03:30:54.784Z,13.65
2023-05-06T03:31:54.890Z,13.71
2023-05-06T03:32:54.886Z,13.68
2023-05-06T03:33:54.761Z,13.67
2023-05-06T03:34:54.734Z,13.64
2023-05-06T03:35:54.717Z,13.60
2023-05-06T03:36:54.704Z,13.55
2023-05-06T03:37:54.711Z,13.49
2023-05-06T03:38:54.663Z,13.49
2023-05-06T03:39:54.677Z,13.49
2023-05-06T03:40:54.639Z,13.49
2023-05-06T03:41:54.636Z,13.51
2023-05-06T03:42:54.633Z,13.47
2023-05-06T03:43:54.608Z,13.49
2023-05-06T03:44:54.624Z,13.47
2023-05-06T03:45:54.611Z,13.45
2023-05-06T03:46:54.560Z,13.45
2023-05-06T03:47:54.610Z,13.45
2023-05-06T03:48:54.591Z,13.43
2023-05-06T03:49:54.556Z,13.42
2023-05-06T03:50:54.518Z,13.38
2023-05-06T03:51:54.502Z,13.39
2023-05-06T03:52:54.515Z,13.40
2023-05-06T03:53:55.030Z,13.40
2023-05-06T03:54:54.457Z,13.43
2023-05-06T03:55:54.449Z,13.47
2023-05-06T03:56:54.450Z,13.58
2023-05-06T03:57:54.471Z,13.58
2023-05-06T03:58:54.412Z,13.60
2023-05-06T03:59:54.403Z,13.63
2023-05-06T04:00:54.399Z,13.67
2023-05-06T04:01:54.388Z,13.61
2023-05-06T04:02:54.446Z,13.64
2023-05-06T04:03:54.381Z,13.68
2023-05-06T04:04:54.333Z,13.64
2023-05-06T04:05:54.335Z,13.63
2023-05-06T04:06:54.360Z,13.64
2023-05-06T04:07:54.284Z,13.67
2023-05-06T04:08:54.282Z,13.65
2023-05-06T04:09:54.289Z,13.68
2023-05-06T04:10:54.288Z,13.71
2023-05-06T04:11:54.607Z,13.68
2023-05-06T04:12:54.259Z,13.68
2023-05-06T04:13:54.223Z,13.65
2023-05-06T04:14:54.202Z,13.67
2023-05-06T04:15:54.310Z,13.71
2023-05-06T04:16:54.201Z,13.76
2023-05-06T04:17:54.160Z,13.78
2023-05-06T04:18:54.151Z,13.82
2023-05-06T04:19:54.137Z,13.79
2023-05-06T04:20:54.142Z,13.76
2023-05-06T04:21:54.124Z,13.76
2023-05-06T04:22:54.100Z,13.80
2023-05-06T04:23:54.070Z,13.85
2023-05-06T04:24:54.066Z,13.86
2023-05-06T04:25:54.089Z,13.88
2023-05-06T04:26:54.039Z,13.90
2023-05-06T04:27:54.035Z,13.91
2023-05-06T04:28:54.016Z,13.98
2023-05-06T04:29:54.009Z,14.03
2023-05-06T04:30:54.001Z,14.08
2023-05-06T04:31:54.174Z,14.12
2023-05-06T04:32:53.992Z,14.16
2023-05-06T04:33:53.954Z,14.18
2023-05-06T04:34:53.978Z,14.19
2023-05-06T04:35:54.000Z,14.23
2023-05-06T04:36:53.911Z,14.23
2023-05-06T04:37:53.911Z,14.22
2023-05-06T04:38:53.883Z,14.27
2023-05-06T04:39:53.888Z,14.28
2023-05-06T04:40:53.868Z,14.30
2023-05-06T04:41:53.833Z,14.36
2023-05-06T04:42:53.850Z,14.37
2023-05-06T04:43:53.806Z,14.40
2023-05-06T04:44:53.822Z,14.41
2023-05-06T04:45:53.842Z,14.40
2023-05-06T04:46:53.776Z,14.48
2023-05-06T04:47:53.780Z,14.53
2023-05-06T04:48:53.764Z,14.61
2023-05-06T04:49:53.758Z,14.78
2023-05-06T04:50:53.745Z,14.99
2023-05-06T04:51:53.718Z,15.25
2023-05-06T04:52:53.697Z,15.44
2023-05-06T04:53:53.692Z,15.63
2023-05-06T04:54:53.704Z,15.85
2023-05-06T04:55:53.660Z,15.91
2023-05-06T04:56:53.649Z,15.98
2023-05-06T04:57:53.637Z,15.99
2023-05-06T04:58:53.638Z,16.09
2023-05-06T04:59:53.600Z,16.24
2023-05-06T05:00:53.652Z,16.33
2023-05-06T05:01:53.576Z,16.47
2023-05-06T05:02:53.640Z,16.62
2023-05-06T05:03:53.572Z,16.72
2023-05-06T05:04:53.555Z,16.74
2023-05-06T05:05:53.538Z,16.82
2023-05-06T05:06:53.518Z,16.90
2023-05-06T05:07:53.526Z,16.97
2023-05-06T05:08:55.240Z,17.06
2023-05-06T05:09:53.466Z,17.14
2023-05-06T05:10:53.471Z,17.14
2023-05-06T05:11:53.450Z,16.99
2023-05-06T05:12:53.527Z,16.87
2023-05-06T05:13:55.384Z,16.95
2023-05-06T05:14:53.411Z,16.97
2023-05-06T05:15:53.386Z,17.12
2023-05-06T05:16:53.449Z,17.34
2023-05-06T05:17:53.393Z,17.24
2023-05-06T05:18:53.373Z,17.43
2023-05-06T05:19:53.354Z,17.87
2023-05-06T05:20:53.330Z,18.12
2023-05-06T05:21:53.313Z,18.20
2023-05-06T05:22:53.320Z,18.15
2023-05-06T05:23:53.311Z,18.23
2023-05-06T05:24:53.286Z,18.30
2023-05-06T05:25:53.251Z,18.39
2023-05-06T05:26:53.255Z,18.46
2023-05-06T05:27:53.272Z,18.38
2023-05-06T05:28:53.243Z,18.08
2023-05-06T05:29:53.211Z,18.03
2023-05-06T05:30:53.293Z,18.12
2023-05-06T05:31:53.193Z,18.18
2023-05-06T05:32:53.269Z,18.01
2023-05-06T05:33:53.220Z,17.72
2023-05-06T05:34:53.178Z,17.71
2023-05-06T05:35:53.134Z,17.62
2023-05-06T05:36:53.145Z,17.73
2023-05-06T05:37:53.111Z,17.94
2023-05-06T05:38:53.086Z,17.87
2023-05-06T05:39:53.069Z,17.43
2023-05-06T05:40:53.088Z,16.87
2023-05-06T05:41:53.085Z,16.59
2023-05-06T05:42:53.041Z,16.54
2023-05-06T05:43:53.009Z,16.29
2023-05-06T05:44:53.000Z,16.40
2023-05-06T05:45:53.035Z,16.37
2023-05-06T05:46:53.027Z,16.29
2023-05-06T05:47:53.037Z,16.57
2023-05-06T05:48:52.994Z,16.47
2023-05-06T05:49:52.956Z,16.25
2023-05-06T05:50:52.965Z,16.21
2023-05-06T05:51:52.922Z,16.40
2023-05-06T05:52:52.902Z,16.76
2023-05-06T05:53:52.872Z,16.70
2023-05-06T05:54:52.894Z,16.73
2023-05-06T05:55:53.258Z,16.40
2023-05-06T05:56:52.858Z,16.47
2023-05-06T05:57:52.830Z,16.76
2023-05-06T05:58:52.817Z,17.22
2023-05-06T05:59:52.836Z,17.38
2023-05-06T06:00:52.796Z,17.45
2023-05-06T06:01:52.789Z,17.59
2023-05-06T06:02:52.819Z,17.49
2023-05-06T06:03:52.924Z,17.47
2023-05-06T06:04:52.919Z,17.88
2023-05-06T06:05:52.722Z,18.26
2023-05-06T06:06:52.723Z,18.31
2023-05-06T06:07:52.690Z,18.20
2023-05-06T06:08:52.727Z,18.09
2023-05-06T06:09:52.658Z,18.06
2023-05-06T06:10:52.666Z,18.09
2023-05-06T06:11:52.649Z,18.41
2023-05-06T06:12:52.727Z,18.54
2023-05-06T06:13:52.663Z,18.60
2023-05-06T06:14:52.634Z,18.67
2023-05-06T06:15:52.748Z,18.88
2023-05-06T06:16:52.580Z,19.16
2023-05-06T06:17:52.577Z,19.45
2023-05-06T06:18:52.546Z,19.31
2023-05-06T06:19:52.579Z,18.48
2023-05-06T06:22:08.602Z,17.94
2023-05-06T06:23:09.584Z,17.73
2023-05-06T06:24:09.552Z,17.76
2023-05-06T06:25:09.741Z,17.71
2023-05-06T06:26:12.114Z,17.78
2023-05-06T06:27:09.521Z,17.56
2023-05-06T06:28:09.503Z,17.63
2023-05-06T06:29:09.501Z,17.56
2023-05-06T06:30:09.542Z,17.75
2023-05-06T06:31:09.476Z,17.78
2023-05-06T06:32:09.579Z,17.86
2023-05-06T06:33:09.467Z,17.90
2023-05-06T06:34:09.443Z,17.99
2023-05-06T06:35:09.649Z,18.21
2023-05-06T06:36:09.413Z,18.41
2023-05-06T06:37:09.414Z,18.52
2023-05-06T06:38:09.388Z,18.36
2023-05-06T06:39:09.357Z,18.11
2023-05-06T06:40:09.361Z,18.26
2023-05-06T06:41:09.333Z,18.24
2023-05-06T06:42:09.357Z,18.45
2023-05-06T06:43:09.297Z,18.94
2023-05-06T06:44:09.306Z,19.23
2023-05-06T06:45:09.430Z,19.32
2023-05-06T06:46:09.305Z,19.08
2023-05-06T06:47:09.272Z,19.08
2023-05-06T06:48:09.270Z,19.19
2023-05-06T06:49:09.223Z,19.30
2023-05-06T06:50:09.208Z,19.70
2023-05-06T06:51:09.216Z,19.89
2023-05-06T06:52:09.181Z,19.20
2023-05-06T06:53:09.169Z,19.42
2023-05-06T06:54:09.160Z,19.68
2023-05-06T06:55:09.266Z,19.53
2023-05-06T06:56:09.152Z,19.60
2023-05-06T06:57:09.125Z,19.27
2023-05-06T06:58:09.145Z,19.45
2023-05-06T06:59:09.108Z,19.56
2023-05-06T07:00:09.088Z,19.67
2023-05-06T07:01:09.084Z,19.38
2023-05-06T07:02:09.063Z,19.09
2023-05-06T07:03:09.089Z,19.01
2023-05-06T07:04:09.061Z,18.85
2023-05-06T07:05:09.196Z,18.86
2023-05-06T07:06:09.037Z,18.26
2023-05-06T07:07:08.980Z,18.01
2023-05-06T07:08:08.991Z,17.62
2023-05-06T07:09:08.977Z,17.49
2023-05-06T07:10:08.951Z,17.53
2023-05-06T07:11:08.932Z,17.62
2023-05-06T07:12:08.933Z,17.78
2023-05-06T07:13:08.965Z,17.49
2023-05-06T07:14:08.900Z,17.63
2023-05-06T07:15:09.363Z,17.86
2023-05-06T07:16:08.874Z,18.05
2023-05-06T07:17:08.883Z,18.12
2023-05-06T07:18:08.918Z,18.36
2023-05-06T07:19:08.825Z,17.99
2023-05-06T07:20:08.855Z,18.08
2023-05-06T07:21:08.813Z,18.46
2023-05-06T07:22:08.820Z,18.61
2023-05-06T07:23:08.779Z,18.74
2023-05-06T07:24:08.769Z,19.04
2023-05-06T07:25:09.430Z,19.17
2023-05-06T07:26:08.745Z,19.41
2023-05-06T07:27:08.719Z,19.38
2023-05-06T07:28:08.720Z,19.35
2023-05-06T07:29:08.713Z,18.83
2023-05-06T07:30:08.679Z,19.08
2023-05-06T07:31:08.707Z,18.78
2023-05-06T07:32:08.674Z,18.45
2023-05-06T07:33:08.642Z,18.71
2023-05-06T07:34:08.633Z,18.88
2023-05-06T07:35:08.831Z,19.15
2023-05-06T07:36:08.621Z,19.39
2023-05-06T07:37:08.614Z,19.94
2023-05-06T07:38:08.576Z,20.07
2023-05-06T07:39:08.582Z,20.09
2023-05-06T07:40:08.585Z,20.36
2023-05-06T07:41:08.539Z,20.17
2023-05-06T07:42:08.540Z,20.17
2023-05-06T07:43:08.508Z,20.12
2023-05-06T07:44:08.534Z,20.11
2023-05-06T07:45:08.606Z,19.87
2023-05-06T07:46:08.484Z,19.93
2023-05-06T07:47:08.504Z,20.04
2023-05-06T07:48:08.499Z,20.17
2023-05-06T07:49:08.449Z,20.25
2023-05-06T07:50:08.436Z,20.00
2023-05-06T07:51:08.397Z,19.99
2023-05-06T07:52:08.398Z,20.12
2023-05-06T07:53:08.401Z,20.39
2023-05-06T07:54:08.394Z,20.71
2023-05-06T07:55:08.702Z,20.95
2023-05-06T07:56:08.340Z,20.85
2023-05-06T07:57:08.418Z,21.05
2023-05-06T07:58:08.312Z,20.95
2023-05-06T07:59:08.300Z,20.93
2023-05-06T08:00:08.333Z,20.92
2023-05-06T08:01:08.276Z,21.22
2023-05-06T08:02:08.291Z,20.89
2023-05-06T08:03:08.357Z,20.53
2023-05-06T08:04:08.370Z,20.22
2023-05-06T08:05:08.335Z,20.61
2023-05-06T08:06:08.199Z,20.85
2023-05-06T08:07:08.194Z,21.00
2023-05-06T08:08:08.218Z,21.05
2023-05-06T08:09:08.156Z,21.00
2023-05-06T08:10:08.181Z,21.37
2023-05-06T08:11:08.130Z,21.81
2023-05-06T08:12:08.149Z,22.00
2023-05-06T08:13:08.155Z,22.11
2023-05-06T08:14:08.100Z,22.22
2023-05-06T08:15:08.249Z,22.07
2023-05-06T08:16:08.220Z,21.97
2023-05-06T08:17:08.203Z,22.07
2023-05-06T08:18:20.862Z,22.30
2023-05-06T08:19:08.051Z,22.33
2023-05-06T08:20:08.023Z,22.37
2023-05-06T08:21:08.008Z,22.15
2023-05-06T08:22:08.008Z,22.03
2023-05-06T08:23:07.987Z,22.22
2023-05-06T08:24:07.992Z,22.06
2023-05-06T08:25:08.090Z,21.80
2023-05-06T08:26:07.955Z,21.80
2023-05-06T08:27:07.939Z,21.81
2023-05-06T08:28:07.959Z,22.01
2023-05-06T08:29:07.920Z,22.12
2023-05-06T08:30:07.901Z,22.03
2023-05-06T08:31:07.872Z,21.97
2023-05-06T08:32:07.946Z,22.03
2023-05-06T08:33:07.938Z,21.94
2023-05-06T08:34:07.853Z,21.84
2023-05-06T08:35:07.882Z,21.96
2023-05-06T08:36:07.824Z,22.03
2023-05-06T08:37:07.794Z,22.01
2023-05-06T08:38:07.794Z,21.73
2023-05-06T08:39:07.759Z,21.53
2023-05-06T08:40:07.756Z,21.14
2023-05-06T08:41:07.753Z,20.98
2023-05-06T08:42:07.744Z,20.63
2023-05-06T08:43:07.710Z,20.49
2023-05-06T08:44:07.774Z,20.64
2023-05-06T08:45:07.780Z,20.90
2023-05-06T08:46:07.734Z,21.11
2023-05-06T08:47:07.681Z,21.01
2023-05-06T08:48:07.652Z,20.36
2023-05-06T08:49:07.637Z,20.19
2023-05-06T08:50:07.638Z,20.44
2023-05-06T08:51:07.598Z,20.70
2023-05-06T08:52:07.645Z,20.77
2023-05-06T08:53:07.591Z,20.89
2023-05-06T08:54:07.566Z,21.18
2023-05-06T08:55:07.619Z,21.37
2023-05-06T08:56:07.540Z,21.55
2023-05-06T08:57:07.914Z,21.75
2023-05-06T08:58:07.525Z,21.66
2023-05-06T08:59:07.540Z,21.78
2023-05-06T09:00:07.528Z,21.66
2023-05-06T09:01:07.519Z,21.63
2023-05-06T09:02:07.496Z,21.69
2023-05-06T09:03:07.578Z,21.73
2023-05-06T09:04:07.470Z,21.94
2023-05-06T09:05:07.457Z,21.88
2023-05-06T09:06:07.421Z,21.97
2023-05-06T09:07:07.384Z,22.11
2023-05-06T09:08:07.396Z,22.03
2023-05-06T09:09:07.370Z,21.69
2023-05-06T09:10:07.402Z,21.37
2023-05-06T09:11:07.362Z,21.26
2023-05-06T09:12:07.339Z,21.25
2023-05-06T09:13:07.329Z,21.41
2023-05-06T09:14:07.323Z,21.58
2023-05-06T09:15:07.321Z,21.53
2023-05-06T09:16:07.300Z,21.63
2023-05-06T09:17:07.311Z,21.34
2023-05-06T09:18:07.260Z,21.23
2023-05-06T09:19:07.233Z,21.29
2023-05-06T09:20:07.239Z,20.98
2023-05-06T09:21:07.247Z,21.10
2023-05-06T09:22:07.192Z,21.30
2023-05-06T09:23:07.205Z,21.47
2023-05-06T09:24:07.160Z,21.58
2023-05-06T09:25:07.258Z,21.47
2023-05-06T09:26:07.205Z,21.56
2023-05-06T09:27:08.429Z,21.73
2023-05-06T09:28:07.119Z,21.94
2023-05-06T09:29:07.115Z,22.06
2023-05-06T09:30:07.132Z,22.15
2023-05-06T09:31:07.258Z,22.19
2023-05-06T09:32:07.081Z,21.73
2023-05-06T09:33:07.064Z,21.58
2023-05-06T09:34:07.034Z,21.51
2023-05-06T09:35:07.061Z,21.67
2023-05-06T09:36:07.018Z,21.66
2023-05-06T09:37:07.007Z,21.81
2023-05-06T09:38:07.384Z,22.00
2023-05-06T09:39:07.004Z,22.15
2023-05-06T09:40:06.989Z,22.27
2023-05-06T09:41:06.977Z,22.40
2023-05-06T09:42:06.961Z,22.28
2023-05-06T09:43:06.976Z,21.97
2023-05-06T09:44:06.961Z,21.51
2023-05-06T09:45:06.944Z,21.51
2023-05-06T09:46:07.023Z,21.41
2023-05-06T09:47:06.932Z,21.74
2023-05-06T09:48:06.938Z,21.75
2023-05-06T09:49:06.896Z,21.67
2023-05-06T09:50:06.837Z,21.73
2023-05-06T09:51:06.851Z,21.56
2023-05-06T09:52:06.829Z,21.80
2023-05-06T09:53:06.812Z,21.78
2023-05-06T09:54:06.809Z,21.81
2023-05-06T09:55:06.768Z,21.97
2023-05-06T09:56:06.769Z,22.01
2023-05-06T09:57:06.744Z,21.97
2023-05-06T09:58:06.727Z,21.56
2023-05-06T09:59:06.719Z,21.29
2023-05-06T10:00:06.730Z,21.19
2023-05-06T10:01:06.718Z,21.05
2023-05-06T10:02:06.722Z,21.23
2023-05-06T10:03:06.818Z,21.05
2023-05-06T10:04:06.901Z,21.14
2023-05-06T10:05:06.732Z,21.18
2023-05-06T10:06:06.620Z,21.16
2023-05-06T10:07:06.661Z,21.38
2023-05-06T10:08:06.612Z,21.55
2023-05-06T10:09:06.568Z,21.81
2023-05-06T10:10:06.585Z,21.93
2023-05-06T10:11:06.547Z,21.85
2023-05-06T10:12:06.538Z,21.85
2023-05-06T10:13:06.605Z,21.93
2023-05-06T10:14:06.524Z,21.96
2023-05-06T10:15:06.519Z,22.25
2023-05-06T10:16:06.532Z,22.46
2023-05-06T10:17:06.473Z,22.76
2023-05-06T10:18:06.557Z,23.13
2023-05-06T10:19:06.583Z,23.41
2023-05-06T10:20:06.431Z,23.64
2023-05-06T10:21:06.426Z,23.88
2023-05-06T10:22:06.453Z,24.08
2023-05-06T10:23:06.389Z,24.31
2023-05-06T10:24:06.391Z,24.45
2023-05-06T10:25:06.380Z,24.75
2023-05-06T10:26:06.350Z,24.96
2023-05-06T10:27:06.355Z,25.14
2023-05-06T10:28:06.794Z,25.09
2023-05-06T10:29:06.332Z,24.97
2023-05-06T10:30:06.292Z,24.91
2023-05-06T10:31:06.286Z,25.08
2023-05-06T10:32:06.392Z,25.30
2023-05-06T10:33:06.297Z,25.15
2023-05-06T10:34:06.238Z,25.23
2023-05-06T10:35:06.228Z,25.16
2023-05-06T10:36:06.221Z,24.76
2023-05-06T10:37:06.212Z,24.36
2023-05-06T10:38:06.186Z,24.41
2023-05-06T10:39:06.176Z,24.59
2023-05-06T10:40:06.155Z,24.82
2023-05-06T10:41:06.161Z,24.96
2023-05-06T10:42:06.144Z,25.15
2023-05-06T10:43:06.123Z,25.33
2023-05-06T10:44:06.164Z,25.56
2023-05-06T10:45:06.112Z,25.86
2023-05-06T10:46:06.196Z,25.83
2023-05-06T10:47:06.088Z,25.95
2023-05-06T10:48:06.098Z,25.92
2023-05-06T10:49:06.110Z,26.10
2023-05-06T10:50:06.039Z,25.96
2023-05-06T10:51:06.013Z,25.89
2023-05-06T10:52:06.034Z,26.19
2023-05-06T10:53:05.998Z,26.39
2023-05-06T10:54:05.963Z,26.30
2023-05-06T10:55:06.034Z,25.37
2023-05-06T10:56:05.982Z,25.38
2023-05-06T10:57:05.940Z,25.53
2023-05-06T10:58:05.924Z,25.78
2023-05-06T10:59:05.923Z,26.03
2023-05-06T11:00:05.940Z,25.89
2023-05-06T11:01:05.953Z,25.51
2023-05-06T11:02:05.913Z,25.64
2023-05-06T11:03:05.961Z,25.71
2023-05-06T11:04:05.835Z,25.59
2023-05-06T11:05:05.864Z,25.40
2023-05-06T11:06:05.813Z,25.58
2023-05-06T11:07:05.810Z,25.61
2023-05-06T11:08:05.793Z,25.75
2023-05-06T11:09:05.819Z,25.38
2023-05-06T11:10:05.789Z,25.27
2023-05-06T11:11:05.759Z,25.00
2023-05-06T11:12:05.767Z,25.00
2023-05-06T11:13:05.795Z,25.06
2023-05-06T11:14:05.721Z,24.76
2023-05-06T11:15:05.728Z,25.21
2023-05-06T11:16:05.689Z,25.67
2023-05-06T11:17:05.824Z,25.33
2023-05-06T11:18:05.728Z,25.40
2023-05-06T11:19:05.672Z,25.51
2023-05-06T11:20:05.641Z,25.70
2023-05-06T11:21:05.656Z,25.67
2023-05-06T11:22:05.615Z,25.61
2023-05-06T11:23:05.605Z,25.48
2023-05-06T11:24:05.592Z,25.86
2023-05-06T11:25:05.588Z,26.24
2023-05-06T11:26:05.559Z,26.51
2023-05-06T11:27:05.541Z,26.85
2023-05-06T11:28:05.547Z,26.90
2023-05-06T11:29:05.523Z,26.23
2023-05-06T11:30:05.528Z,26.23
2023-05-06T11:31:05.607Z,26.36
2023-05-06T11:32:05.495Z,26.42
2023-05-06T11:33:05.928Z,25.70
2023-05-06T11:34:05.455Z,25.11
2023-05-06T11:35:05.471Z,24.89
2023-05-06T11:36:05.462Z,24.91
2023-05-06T11:37:05.415Z,25.08
2023-05-06T11:38:05.435Z,25.22
2023-05-06T11:39:05.388Z,25.30
2023-05-06T11:40:05.392Z,25.27
2023-05-06T11:41:05.374Z,24.60
2023-05-06T11:42:05.345Z,24.10
2023-05-06T11:43:05.357Z,24.18
2023-05-06T11:44:05.321Z,24.48
2023-05-06T11:45:05.315Z,24.52
2023-05-06T11:46:05.363Z,24.55
2023-05-06T11:47:05.295Z,24.47
2023-05-06T11:48:05.312Z,24.47
2023-05-06T11:49:05.274Z,24.86
2023-05-06T11:50:05.241Z,25.21
2023-05-06T11:51:05.239Z,25.23
2023-05-06T11:52:05.248Z,25.26
2023-05-06T11:53:05.217Z,25.51
2023-05-06T11:54:05.195Z,25.73
2023-05-06T11:55:05.175Z,26.04
2023-05-06T11:56:05.165Z,26.19
2023-05-06T11:57:05.176Z,26.24
2023-05-06T11:58:05.140Z,25.73
2023-05-06T11:59:05.124Z,26.05
2023-05-06T12:00:05.101Z,26.26
2023-05-06T12:01:05.112Z,26.07
2023-05-06T12:02:05.097Z,26.24
2023-05-06T12:03:05.211Z,26.33
2023-05-06T12:04:05.212Z,26.36
2023-05-06T12:05:05.050Z,26.79
2023-05-06T12:06:05.038Z,26.93
2023-05-06T12:07:05.066Z,26.79
2023-05-06T12:08:08.468Z,26.67
2023-05-06T12:09:04.991Z,26.75
2023-05-06T12:10:05.089Z,26.80
2023-05-06T12:11:05.020Z,27.23
2023-05-06T12:12:04.989Z,27.40
2023-05-06T12:13:05.037Z,27.76
2023-05-06T12:14:04.943Z,27.47
2023-05-06T12:15:04.922Z,27.22
2023-05-06T12:16:04.967Z,27.04
2023-05-06T12:17:04.918Z,26.78
2023-05-06T12:18:04.921Z,26.65
2023-05-06T12:19:04.895Z,25.95
2023-05-06T12:20:04.904Z,25.95
2023-05-06T12:21:04.867Z,26.00
2023-05-06T12:22:10.885Z,25.89
2023-05-06T12:23:04.811Z,25.74
2023-05-06T12:24:04.831Z,25.86
2023-05-06T12:25:04.782Z,25.81
2023-05-06T12:26:04.789Z,26.31
2023-05-06T12:27:04.765Z,26.42
2023-05-06T12:28:04.749Z,26.80
2023-05-06T12:29:04.742Z,27.27
2023-05-06T12:30:05.000Z,26.86
2023-05-06T12:31:04.733Z,26.23
2023-05-06T12:32:04.784Z,26.27
2023-05-06T12:33:04.725Z,26.67
2023-05-06T12:34:04.658Z,26.94
2023-05-06T12:35:04.649Z,27.40
2023-05-06T12:36:04.659Z,27.75
2023-05-06T12:37:04.700Z,28.13
2023-05-06T12:38:04.620Z,27.45
2023-05-06T12:39:04.607Z,27.49
2023-05-06T12:40:04.591Z,27.10
2023-05-06T12:41:04.592Z,27.50
2023-05-06T12:42:04.562Z,28.03
2023-05-06T12:43:04.530Z,27.50
2023-05-06T12:44:04.538Z,27.22
2023-05-06T12:45:04.576Z,26.82
2023-05-06T12:46:04.652Z,26.79
2023-05-06T12:47:04.553Z,26.90
2023-05-06T12:48:04.520Z,27.27
2023-05-06T12:49:04.475Z,26.89
2023-05-06T12:50:04.454Z,25.82
2023-05-06T12:51:04.460Z,25.64
2023-05-06T12:52:04.424Z,25.68
2023-05-06T12:53:04.434Z,26.03
2023-05-06T12:54:04.417Z,26.63
2023-05-06T12:55:04.443Z,27.13